Time;durP1;ratioP1;P1;durP2;ratioP2;P2;SDS_P1;SDS_P2;PMS_P1;PMS_P2;Temp;Humidity;BMP_temperature;BMP_pressure;BME280_temperature;BME280_humidity;BME280_pressure;Samples;Min_cycle;Max_cycle;Signal;HPM_P1;HPM_P2
2023/09/26 00:01:40;;;;;;;10.55;6.50;;;;;;;-143.21;65.40;71754.91;5105845;28;20670;-78
2023/09/26 00:04:07;;;;;;;13.00;6.22;;;;;;;-143.21;65.75;71760.88;5103561;28;20211;-77
2023/09/26 00:06:33;;;;;;;15.20;6.85;;;;;;;-143.21;66.01;71762.84;5105170;28;20294;-83
2023/09/26 00:09:00;;;;;;;12.82;6.90;;;;;;;-143.21;66.15;71758.88;5105393;28;20216;-84
2023/09/26 00:11:28;;;;;;;15.60;7.00;;;;;;;-143.21;66.26;71770.78;5105904;28;20570;-84
2023/09/26 00:13:55;;;;;;;16.92;6.90;;;;;;;-143.21;66.01;71768.78;5105605;28;20199;-84
2023/09/26 00:16:22;;;;;;;11.98;6.32;;;;;;;-143.21;65.98;71770.78;5116602;28;20235;-84
2023/09/26 00:18:48;;;;;;;13.90;7.32;;;;;;;-143.21;65.93;71774.75;5107621;28;20216;-84
2023/09/26 00:21:15;;;;;;;12.70;7.32;;;;;;;-143.21;66.39;71796.56;5107330;28;20204;-84
2023/09/26 00:23:42;;;;;;;15.20;6.82;;;;;;;-143.21;67.13;71820.34;5104917;28;20207;-83
2023/09/26 00:26:09;;;;;;;13.48;6.97;;;;;;;-143.21;67.01;71822.34;5101896;28;20203;-83
2023/09/26 00:28:37;;;;;;;12.38;6.53;;;;;;;-143.21;67.09;71840.19;5105366;28;20199;-83
2023/09/26 00:31:04;;;;;;;11.43;6.45;;;;;;;-143.21;67.16;71838.19;5105735;28;20208;-83
2023/09/26 00:33:33;;;;;;;12.77;6.57;;;;;;;-143.21;67.06;71836.22;5106606;28;20228;-86
2023/09/26 00:36:07;;;;;;;18.23;6.75;;;;;;;-143.21;66.49;71824.31;5104829;28;20216;-84
2023/09/26 00:38:34;;;;;;;13.30;6.25;;;;;;;-143.21;66.37;71832.25;5105248;28;20245;-83
2023/09/26 00:41:01;;;;;;;16.08;5.72;;;;;;;-143.21;66.06;71820.34;5105283;28;20211;-83
2023/09/26 00:43:27;;;;;;;9.55;6.05;;;;;;;-143.21;65.66;71822.34;5105410;28;20589;-82
2023/09/26 00:45:57;;;;;;;14.38;6.22;;;;;;;-143.21;65.01;71818.38;5106491;28;20196;-83
2023/09/26 00:48:25;;;;;;;15.32;5.90;;;;;;;-143.21;64.25;71814.41;5105406;28;20200;-84
2023/09/26 00:50:52;;;;;;;14.63;5.47;;;;;;;-143.21;63.52;71820.34;5102684;28;20227;-83
2023/09/26 00:53:20;;;;;;;7.22;5.15;;;;;;;-143.21;62.31;71818.38;5102338;28;20361;-83
2023/09/26 00:55:49;;;;;;;13.43;5.35;;;;;;;-143.21;60.97;71830.25;5107680;28;20662;-83
2023/09/26 00:58:18;;;;;;;14.45;5.00;;;;;;;-143.21;60.52;71832.25;5105532;28;20622;-83
2023/09/26 01:00:46;;;;;;;19.33;5.57;;;;;;;-143.21;60.29;71836.22;5105898;28;20289;-83
2023/09/26 01:03:15;;;;;;;13.35;5.65;;;;;;;-143.21;59.68;71828.28;5105217;28;20230;-83
2023/09/26 01:05:43;;;;;;;18.30;5.20;;;;;;;-143.21;59.05;71822.34;5106875;28;20262;-83
2023/09/26 01:08:10;;;;;;;14.10;5.07;;;;;;;-143.21;58.66;71820.34;5107763;28;20207;-83
2023/09/26 01:10:37;;;;;;;13.93;5.25;;;;;;;-143.21;59.08;71816.38;5108790;28;20732;-83
2023/09/26 01:13:05;;;;;;;14.20;5.10;;;;;;;-143.21;58.92;71818.38;5110857;28;20200;-84
2023/09/26 01:15:35;;;;;;;15.38;5.40;;;;;;;-143.21;59.03;71828.28;5115602;28;20682;-83
2023/09/26 01:18:03;;;;;;;11.30;5.20;;;;;;;-143.21;59.18;71830.25;5108779;28;20662;-81
2023/09/26 01:20:31;;;;;;;12.13;4.80;;;;;;;-143.21;59.25;71824.31;5108200;28;20196;-84
2023/09/26 01:23:01;;;;;;;16.92;5.45;;;;;;;-143.21;59.68;71832.25;5108777;28;20215;-83
2023/09/26 01:25:30;;;;;;;13.27;5.53;;;;;;;-143.21;59.69;71826.28;5118130;28;20221;-83
2023/09/26 01:28:01;;;;;;;18.92;5.38;;;;;;;-143.21;59.64;71836.22;5106227;28;20200;-84
2023/09/26 01:30:28;;;;;;;10.02;4.88;;;;;;;-143.21;59.40;71828.28;5110354;28;20207;-85
2023/09/26 01:32:55;;;;;;;15.52;5.53;;;;;;;-143.21;59.92;71848.09;5109756;28;20228;-85
2023/09/26 01:35:22;;;;;;;15.10;5.63;;;;;;;-143.21;60.55;71844.16;5109459;28;20227;-86
2023/09/26 01:37:50;;;;;;;15.95;5.70;;;;;;;-143.21;60.53;71848.09;5108781;28;20236;-86
2023/09/26 01:40:17;;;;;;;19.30;5.95;;;;;;;-143.21;61.17;71856.03;5111098;28;20204;-86
2023/09/26 01:42:45;;;;;;;17.98;5.88;;;;;;;-143.21;61.46;71856.03;5110323;28;20674;-86
2023/09/26 01:45:12;;;;;;;14.75;5.85;;;;;;;-143.21;61.67;71858.03;5107613;28;20783;-86
2023/09/26 01:47:46;;;;;;;11.30;5.50;;;;;;;-143.21;62.09;71860.00;5106653;28;20705;-86
2023/09/26 01:50:13;;;;;;;13.10;6.13;;;;;;;-143.21;61.67;71863.97;5108489;28;20294;-85
2023/09/26 01:52:40;;;;;;;27.45;5.47;;;;;;;-143.21;61.81;71873.88;5110519;28;20204;-86
2023/09/26 01:55:10;;;;;;;12.68;5.68;;;;;;;-143.21;61.49;71879.84;5109342;28;20200;-86
2023/09/26 01:57:37;;;;;;;15.30;6.40;;;;;;;-143.21;61.29;71889.75;5107722;28;20216;-86
2023/09/26 02:00:10;;;;;;;20.23;6.28;;;;;;;-143.21;61.11;71895.69;5108402;28;20196;-86
2023/09/26 02:02:38;;;;;;;13.30;5.82;;;;;;;-143.21;61.09;71895.69;5110113;27;20663;-86
2023/09/26 02:05:05;;;;;;;14.07;5.68;;;;;;;-143.21;61.28;71893.72;5106532;28;20204;-86
2023/09/26 02:07:32;;;;;;;18.50;5.10;;;;;;;-143.21;61.16;71887.78;5108051;28;20207;-84
2023/09/26 02:09:59;;;;;;;14.52;5.65;;;;;;;-143.21;61.20;71881.81;5107977;28;20208;-84
2023/09/26 02:12:26;;;;;;;12.32;5.85;;;;;;;-143.21;60.78;71893.72;5108701;28;20208;-83
2023/09/26 02:14:53;;;;;;;24.48;5.68;;;;;;;-143.21;61.07;71887.78;5111263;28;20207;-83
2023/09/26 02:17:21;;;;;;;14.68;5.88;;;;;;;-143.21;60.91;71893.72;5109706;28;20698;-83
2023/09/26 02:19:48;;;;;;;20.92;5.38;;;;;;;-143.21;60.47;71883.81;5106588;28;20571;-83
2023/09/26 02:22:15;;;;;;;15.77;5.60;;;;;;;-143.21;60.10;71889.75;5116311;28;20987;-84
2023/09/26 02:24:42;;;;;;;16.13;5.43;;;;;;;-143.21;59.22;71877.84;5113150;27;20734;-83
2023/09/26 02:27:09;;;;;;;11.98;5.15;;;;;;;-143.21;59.12;71879.84;5107658;28;20210;-83
2023/09/26 02:29:37;;;;;;;12.13;5.22;;;;;;;-143.21;58.89;71871.91;5108325;28;20291;-85
2023/09/26 02:32:04;;;;;;;24.55;5.15;;;;;;;-143.21;58.44;71877.84;5108360;28;20223;-86
2023/09/26 02:34:32;;;;;;;13.30;4.90;;;;;;;-143.21;57.96;71879.84;5118875;27;20235;-86
2023/09/26 02:36:59;;;;;;;16.33;4.70;;;;;;;-143.21;57.78;71875.88;5108747;28;20228;-86
2023/09/26 02:39:26;;;;;;;20.92;5.53;;;;;;;-143.21;57.48;71879.84;5107095;28;20203;-86
2023/09/26 02:41:52;;;;;;;16.08;5.15;;;;;;;-143.21;57.33;71879.84;5107354;28;20204;-86
2023/09/26 02:44:19;;;;;;;14.57;5.70;;;;;;;-143.21;57.53;71891.72;5105184;28;20208;-86
2023/09/26 02:46:46;;;;;;;15.52;5.30;;;;;;;-143.21;57.19;71891.72;5108881;28;20201;-86
2023/09/26 02:49:13;;;;;;;19.55;5.38;;;;;;;-143.21;57.62;71911.56;5107648;28;20212;-85
2023/09/26 02:51:41;;;;;;;16.42;5.25;;;;;;;-143.21;57.41;71929.41;5108778;28;20223;-86
2023/09/26 02:54:08;;;;;;;18.80;5.40;;;;;;;-143.21;57.00;71947.25;5107811;28;20568;-86
2023/09/26 02:56:35;;;;;;;13.27;5.18;;;;;;;-143.21;56.89;71951.22;5108750;28;20224;-85
2023/09/26 02:59:02;;;;;;;20.88;4.80;;;;;;;-143.21;57.16;71969.06;5112452;28;20204;-85
2023/09/26 03:01:29;;;;;;;15.73;4.90;;;;;;;-143.21;57.16;71965.09;5114495;28;20204;-85
2023/09/26 03:03:56;;;;;;;17.55;5.47;;;;;;;-143.21;57.50;71965.09;5114458;28;20214;-85
2023/09/26 03:06:22;;;;;;;11.95;5.00;;;;;;;-143.21;57.42;71965.09;5105104;28;20810;-85
2023/09/26 03:08:51;;;;;;;12.00;4.75;;;;;;;-143.21;57.61;71967.09;5109675;27;20686;-86
2023/09/26 03:11:17;;;;;;;16.60;5.07;;;;;;;-143.21;57.63;71963.13;5106665;28;20208;-86
2023/09/26 03:13:44;;;;;;;17.33;5.68;;;;;;;-143.21;57.34;71977.00;5107907;28;20736;-86
2023/09/26 03:16:13;;;;;;;20.73;5.50;;;;;;;-143.21;57.53;71978.97;5106676;28;20675;-85
2023/09/26 03:18:40;;;;;;;21.20;5.20;;;;;;;-143.21;57.71;71984.94;5109753;28;20287;-85
2023/09/26 03:21:07;;;;;;;15.05;5.32;;;;;;;-143.21;57.80;71982.94;5107786;28;20204;-85
2023/09/26 03:23:34;;;;;;;15.98;5.22;;;;;;;-143.21;57.47;71965.09;5106840;28;20566;-84
2023/09/26 03:26:02;;;;;;;24.52;5.25;;;;;;;-143.21;57.74;71978.97;5105789;28;20651;-84
2023/09/26 03:28:29;;;;;;;13.23;5.00;;;;;;;-143.21;57.84;71977.00;5106536;28;20211;-83
2023/09/26 03:30:56;;;;;;;18.45;5.28;;;;;;;-143.21;57.73;71965.09;5118540;28;20211;-83
2023/09/26 03:33:23;;;;;;;21.08;5.53;;;;;;;-143.21;57.92;71967.09;5108787;28;20656;-84
2023/09/26 03:35:49;;;;;;;17.98;5.28;;;;;;;-143.21;57.90;71953.19;5103299;28;20200;-83
2023/09/26 03:38:16;;;;;;;19.00;5.43;;;;;;;-143.21;58.06;71951.22;5106250;28;20228;-84
2023/09/26 03:40:43;;;;;;;15.77;5.22;;;;;;;-143.21;58.38;71951.22;5107509;28;20212;-84
2023/09/26 03:43:11;;;;;;;13.88;5.10;;;;;;;-143.21;58.29;71943.28;5115203;28;20596;-85
2023/09/26 03:45:38;;;;;;;17.25;5.55;;;;;;;-143.21;58.13;71943.28;5107573;28;20207;-85
2023/09/26 03:48:06;;;;;;;14.32;5.68;;;;;;;-143.21;58.04;71941.31;5106941;28;20207;-85
2023/09/26 03:50:33;;;;;;;18.20;5.90;;;;;;;-143.21;58.27;71935.34;5105835;28;20208;-86
2023/09/26 03:53:00;;;;;;;18.58;5.95;;;;;;;-143.21;58.39;71939.31;5105784;28;20697;-85
2023/09/26 03:55:26;;;;;;;17.80;5.30;;;;;;;-143.21;58.16;71933.38;5107431;28;20211;-85
2023/09/26 03:58:00;;;;;;;18.17;5.13;;;;;;;-143.21;58.25;71939.31;5108174;28;20327;-85
2023/09/26 04:00:28;;;;;;;16.58;5.45;;;;;;;-143.21;58.42;71931.38;5105038;28;20697;-85
2023/09/26 04:02:56;;;;;;;21.45;6.05;;;;;;;-143.21;58.49;71945.28;5109138;28;20731;-85
2023/09/26 04:05:24;;;;;;;16.90;5.90;;;;;;;-143.21;58.42;71943.28;5108752;28;20709;-85
2023/09/26 04:07:52;;;;;;;11.77;5.95;;;;;;;-143.21;58.67;71955.19;5102329;28;20200;-85
2023/09/26 04:10:18;;;;;;;16.35;6.13;;;;;;;-143.21;58.69;71951.22;5106154;28;20199;-85
2023/09/26 04:12:46;;;;;;;15.50;5.80;;;;;;;-143.21;58.79;71957.16;5106826;28;20211;-85
2023/09/26 04:15:13;;;;;;;16.38;5.75;;;;;;;-143.21;58.89;71963.13;5106953;28;20208;-85
2023/09/26 04:17:41;;;;;;;22.10;6.10;;;;;;;-143.21;58.83;71955.19;5106095;28;20228;-85
2023/09/26 04:20:19;;;;;;;14.43;5.80;;;;;;;-143.21;58.91;71949.25;5105810;28;20694;-83
2023/09/26 04:22:46;;;;;;;22.60;6.07;;;;;;;-143.21;58.44;71957.16;5106209;28;20286;-83
2023/09/26 04:25:13;;;;;;;25.77;5.78;;;;;;;-143.21;58.26;71963.13;5109076;28;20295;-83
2023/09/26 04:27:40;;;;;;;14.25;5.70;;;;;;;-143.21;58.16;71955.19;5106230;28;20207;-84
2023/09/26 04:30:09;;;;;;;24.00;6.20;;;;;;;-143.21;57.82;71951.22;5107363;28;20207;-85
2023/09/26 04:32:36;;;;;;;19.55;5.30;;;;;;;-143.21;57.92;71949.25;5105931;28;20219;-85
2023/09/26 04:35:05;;;;;;;36.63;6.78;;;;;;;-143.21;58.07;71957.16;5101019;28;20204;-84
2023/09/26 04:37:32;;;;;;;21.40;5.47;;;;;;;-143.21;57.97;71959.16;5109249;28;20694;-83
2023/09/26 04:40:00;;;;;;;20.25;5.75;;;;;;;-143.21;57.46;71959.16;5110906;28;20210;-84
2023/09/26 04:42:26;;;;;;;19.65;5.88;;;;;;;-143.21;57.52;71959.16;5107581;28;20208;-84
2023/09/26 04:44:53;;;;;;;25.85;6.47;;;;;;;-143.21;57.48;71951.22;5110453;28;20210;-84
2023/09/26 04:47:21;;;;;;;18.13;6.07;;;;;;;-143.21;57.78;71957.16;5111059;28;20248;-84
2023/09/26 04:49:48;;;;;;;33.75;6.35;;;;;;;-143.21;57.94;71959.16;5116786;28;20200;-85
2023/09/26 04:52:16;;;;;;;22.35;5.93;;;;;;;-143.21;57.40;71967.09;5111386;28;20235;-86
2023/09/26 04:54:43;;;;;;;18.55;5.95;;;;;;;-143.21;57.18;71955.19;5110318;28;20211;-86
2023/09/26 04:57:10;;;;;;;17.83;6.40;;;;;;;-143.21;57.51;71967.09;5109645;28;20228;-86
2023/09/26 04:59:36;;;;;;;22.42;5.90;;;;;;;-143.21;57.57;71971.06;5110770;28;20207;-85
2023/09/26 05:02:04;;;;;;;21.95;6.05;;;;;;;-143.21;57.63;71978.97;5108880;28;20204;-86
2023/09/26 05:04:34;;;;;;;25.38;5.57;;;;;;;-143.21;57.72;71971.06;5108760;28;20207;-85
2023/09/26 05:07:01;;;;;;;17.40;5.40;;;;;;;-143.21;57.40;71959.16;5108880;28;20292;-86
2023/09/26 05:09:34;;;;;;;19.52;5.93;;;;;;;-143.21;57.37;71955.19;5110432;28;20573;-85
2023/09/26 05:12:04;;;;;;;21.40;6.22;;;;;;;-143.21;57.37;71957.16;5106346;28;20207;-85
2023/09/26 05:14:31;;;;;;;30.25;6.57;;;;;;;-143.21;57.29;71953.19;5109035;28;20689;-85
2023/09/26 05:16:58;;;;;;;20.42;6.25;;;;;;;-143.21;57.56;71959.16;5107228;28;20203;-85
2023/09/26 05:19:27;;;;;;;16.00;6.05;;;;;;;-143.21;57.19;71941.31;5108328;28;20203;-85
2023/09/26 05:21:54;;;;;;;20.23;6.38;;;;;;;-143.21;57.35;71945.28;5110169;28;20507;-86
2023/09/26 05:24:22;;;;;;;24.60;6.70;;;;;;;-143.21;57.36;71945.28;5109125;28;20207;-85
2023/09/26 05:26:50;;;;;;;31.27;7.53;;;;;;;-143.21;57.40;71945.28;5108615;28;20207;-84
2023/09/26 05:29:17;;;;;;;19.13;6.47;;;;;;;-143.21;57.09;71935.34;5107746;28;20200;-84
2023/09/26 05:31:44;;;;;;;25.85;7.25;;;;;;;-143.21;56.84;71931.38;5108368;28;20566;-84
2023/09/26 05:34:11;;;;;;;41.35;7.05;;;;;;;-143.21;57.00;71939.31;5107897;28;20228;-84
2023/09/26 05:36:37;;;;;;;18.40;5.85;;;;;;;-143.21;56.90;71935.34;5105656;28;20208;-84
2023/09/26 05:39:05;;;;;;;30.38;6.60;;;;;;;-143.21;56.91;71937.34;5106524;28;20702;-84
2023/09/26 05:41:32;;;;;;;23.13;6.07;;;;;;;-143.21;56.49;71929.41;5107707;28;20257;-83
2023/09/26 05:44:00;;;;;;;27.83;5.93;;;;;;;-143.21;56.54;71923.47;5106573;28;20204;-84
2023/09/26 05:46:27;;;;;;;38.28;7.15;;;;;;;-143.21;56.40;71919.50;5109208;28;20204;-87
2023/09/26 05:48:54;;;;;;;30.38;7.10;;;;;;;-143.21;56.53;71917.50;5113247;28;20203;-84
2023/09/26 05:51:21;;;;;;;26.20;6.28;;;;;;;-143.21;56.27;71905.63;5107913;28;20214;-84
2023/09/26 05:53:48;;;;;;;22.73;6.35;;;;;;;-143.21;55.71;71905.63;5109751;28;20204;-85
2023/09/26 05:56:15;;;;;;;43.97;6.80;;;;;;;-143.21;55.92;71897.69;5108679;28;20240;-84
2023/09/26 05:58:42;;;;;;;23.58;6.15;;;;;;;-143.21;55.85;71895.69;5112918;28;20777;-85
2023/09/26 06:01:11;;;;;;;34.05;5.78;;;;;;;-143.21;55.76;71903.63;5109216;28;20214;-85
2023/09/26 06:03:38;;;;;;;32.72;6.38;;;;;;;-143.21;54.99;71895.69;5108561;28;20290;-84
2023/09/26 06:06:05;;;;;;;21.02;5.60;;;;;;;-143.21;55.11;71899.66;5109404;28;20549;-85
2023/09/26 06:08:33;;;;;;;34.10;5.78;;;;;;;-143.21;55.31;71905.63;5106015;28;20730;-82
2023/09/26 06:11:00;;;;;;;35.05;5.82;;;;;;;-143.21;55.08;71903.63;5105528;28;20208;-82
2023/09/26 06:13:27;;;;;;;30.40;5.88;;;;;;;-143.21;55.09;71899.66;5106410;28;20208;-81
2023/09/26 06:15:54;;;;;;;30.67;5.43;;;;;;;-143.21;55.24;71899.66;5108689;28;20196;-81
2023/09/26 06:18:25;;;;;;;31.77;6.57;;;;;;;-143.21;55.24;71899.66;5105533;28;20736;-82
2023/09/26 06:20:53;;;;;;;45.85;6.70;;;;;;;-143.21;55.20;71887.78;5103692;28;20200;-82
2023/09/26 06:23:21;;;;;;;27.50;6.30;;;;;;;-143.21;55.13;71889.75;5105599;28;20292;-82
2023/09/26 06:25:58;;;;;;;20.67;5.13;;;;;;;-143.21;55.17;71887.78;5106643;28;20200;-82
2023/09/26 06:28:25;;;;;;;27.02;5.65;;;;;;;-143.21;55.05;71883.81;5105069;28;20196;-83
2023/09/26 06:30:52;;;;;;;23.55;5.55;;;;;;;-143.21;54.95;71877.84;5106803;28;20583;-81
2023/09/26 06:33:19;;;;;;;28.10;6.70;;;;;;;-143.21;54.77;71869.91;5106489;28;20248;-84
2023/09/26 06:35:48;;;;;;;29.63;5.72;;;;;;;-143.21;54.67;71869.91;5107731;28;20196;-84
2023/09/26 06:38:15;;;;;;;24.13;6.22;;;;;;;-143.21;54.54;71875.88;5107849;28;20242;-83
2023/09/26 06:40:42;;;;;;;21.33;5.30;;;;;;;-143.21;54.76;71877.84;5108016;28;20208;-84
2023/09/26 06:43:09;;;;;;;19.40;5.35;;;;;;;-143.21;55.05;71877.84;5106252;28;20630;-84
2023/09/26 06:45:39;;;;;;;24.10;5.85;;;;;;;-143.21;55.14;71875.88;5107263;28;20207;-83
2023/09/26 06:48:06;;;;;;;16.52;6.03;;;;;;;-143.21;54.78;71865.97;5107098;28;20371;-83
2023/09/26 06:50:33;;;;;;;30.63;6.25;;;;;;;-143.21;54.62;71869.91;5109545;28;20588;-85
2023/09/26 06:53:02;;;;;;;27.75;5.63;;;;;;;-143.21;54.80;71863.97;5106510;28;20598;-83
2023/09/26 06:55:29;;;;;;;17.90;5.60;;;;;;;-143.21;55.09;71856.03;5108667;28;20227;-85
2023/09/26 06:57:56;;;;;;;28.83;5.38;;;;;;;-143.21;55.55;71858.03;5110408;27;20224;-86
2023/09/26 07:00:24;;;;;;;14.07;4.45;;;;;;;-143.21;62.67;71830.25;5100072;27;20208;-86
2023/09/26 07:02:51;;;;;;;14.85;5.25;;;;;;;-143.21;57.23;71824.31;5106527;28;20253;-84
2023/09/26 07:05:18;;;;;;;20.73;5.45;;;;;;;-143.21;56.08;71820.34;5104938;27;20204;-84
2023/09/26 07:07:45;;;;;;;21.40;5.47;;;;;;;-143.21;55.59;71820.34;5108194;27;20211;-83
2023/09/26 07:10:13;;;;;;;28.98;6.57;;;;;;;-143.21;54.67;71808.44;5099034;27;20777;-84
2023/09/26 07:12:41;;;;;;;29.52;5.82;;;;;;;-143.21;55.04;71822.34;5097867;27;20188;-83
2023/09/26 07:15:12;;;;;;;22.60;6.35;;;;;;;-143.21;55.08;71818.38;5103260;27;20661;-84
2023/09/26 07:17:39;;;;;;;23.00;5.75;;;;;;;-143.21;55.31;71814.41;5101604;27;20196;-84
2023/09/26 07:20:13;;;;;;;17.20;5.20;;;;;;;-143.21;55.43;71812.41;5103678;28;20204;-84
2023/09/26 07:22:39;;;;;;;27.92;5.38;;;;;;;-143.21;55.40;71814.41;5106276;28;20331;-85
2023/09/26 07:25:07;;;;;;;18.00;5.28;;;;;;;-143.21;55.15;71804.47;5107887;28;20204;-84
2023/09/26 07:27:35;;;;;;;25.50;5.50;;;;;;;-143.21;54.87;71802.50;5106212;28;20200;-84
2023/09/26 07:30:02;;;;;;;19.60;5.88;;;;;;;-143.21;55.16;71794.56;5105025;28;20208;-85
2023/09/26 07:32:30;;;;;;;25.60;5.80;;;;;;;-143.21;55.22;71798.53;5105700;28;20208;-85
2023/09/26 07:34:56;;;;;;;20.52;5.43;;;;;;;-143.21;55.65;71794.56;5106938;28;20207;-85
2023/09/26 07:37:24;;;;;;;22.77;5.97;;;;;;;-143.21;55.16;71792.59;5103864;28;20200;-86
2023/09/26 07:39:51;;;;;;;20.85;5.85;;;;;;;-143.21;54.87;71792.59;5103907;28;20247;-84
2023/09/26 07:42:18;;;;;;;22.75;5.97;;;;;;;-143.21;54.34;71784.66;5103824;28;20196;-84
2023/09/26 07:44:47;;;;;;;17.83;5.95;;;;;;;-143.21;54.56;71788.63;5104379;28;20679;-85
2023/09/26 07:47:13;;;;;;;23.15;5.75;;;;;;;-143.21;54.92;71794.56;5104834;28;20219;-85
2023/09/26 07:49:41;;;;;;;20.42;6.25;;;;;;;-143.21;54.24;71796.56;5104987;28;20196;-84
2023/09/26 07:52:07;;;;;;;27.13;5.45;;;;;;;-143.21;54.30;71788.63;5103285;28;20344;-83
2023/09/26 07:54:35;;;;;;;15.32;5.75;;;;;;;-143.21;53.52;71768.78;5103538;28;20230;-84
2023/09/26 07:57:02;;;;;;;19.52;6.15;;;;;;;-143.21;53.03;71748.97;5105689;28;20741;-83
2023/09/26 07:59:28;;;;;;;18.67;5.30;;;;;;;-143.21;52.69;71745.00;5103964;28;20615;-84
2023/09/26 08:01:57;;;;;;;23.50;6.13;;;;;;;-143.21;52.69;71733.09;5105625;28;20207;-83
2023/09/26 08:04:25;;;;;;;23.23;5.97;;;;;;;-143.21;52.51;71725.16;5106491;28;20208;-83
2023/09/26 08:06:52;;;;;;;18.20;5.80;;;;;;;-143.21;52.62;71727.16;5109033;28;20200;-82
2023/09/26 08:09:19;;;;;;;17.25;5.32;;;;;;;-143.21;52.21;71717.25;5107036;28;20203;-82
2023/09/26 08:11:54;;;;;;;12.95;5.45;;;;;;;-143.21;52.01;71713.28;5104311;28;20233;-80
2023/09/26 08:14:24;;;;;;;23.52;5.50;;;;;;;-143.21;51.11;71697.41;5104275;28;20653;-79
2023/09/26 08:16:54;;;;;;;17.23;5.68;;;;;;;-143.21;50.56;71689.47;5099384;28;20208;-77
2023/09/26 08:19:26;;;;;;;19.70;6.15;;;;;;;-143.21;51.03;71675.59;5110563;28;20238;-78
2023/09/26 08:22:01;;;;;;;21.30;5.93;;;;;;;-143.21;50.39;71665.69;5108027;28;20199;-79
2023/09/26 08:24:27;;;;;;;22.63;5.13;;;;;;;-143.21;49.87;71657.75;5107767;28;20581;-78
2023/09/26 08:26:54;;;;;;;18.00;5.60;;;;;;;-143.21;49.73;71665.69;5107184;28;20204;-79
2023/09/26 08:29:21;;;;;;;15.45;6.07;;;;;;;-143.21;49.97;71661.72;5107354;28;20246;-79
2023/09/26 08:31:51;;;;;;;13.75;5.15;;;;;;;-143.21;49.82;71649.81;5110609;28;20204;-79
2023/09/26 08:34:18;;;;;;;24.52;5.65;;;;;;;-143.21;49.51;71624.06;5106607;28;20679;-79
2023/09/26 08:36:47;;;;;;;18.63;5.00;;;;;;;-143.21;48.95;71608.19;5106705;27;21020;-79
2023/09/26 08:39:14;;;;;;;23.20;5.50;;;;;;;-143.21;49.15;71596.28;5106432;28;20227;-80
2023/09/26 08:41:44;;;;;;;20.13;5.03;;;;;;;-143.21;48.76;71598.28;5109220;28;20199;-79
2023/09/26 08:44:12;;;;;;;17.90;5.07;;;;;;;-143.21;48.97;71592.31;5107988;28;20665;-79
2023/09/26 08:46:40;;;;;;;16.95;4.97;;;;;;;-143.21;48.42;71572.50;5107132;28;20629;-79
2023/09/26 08:49:13;;;;;;;17.60;5.10;;;;;;;-143.21;47.34;71554.66;5105825;28;20207;-80
2023/09/26 08:51:40;;;;;;;23.83;5.22;;;;;;;-143.21;46.98;71528.88;5107628;28;20304;-79
2023/09/26 08:54:08;;;;;;;18.60;4.50;;;;;;;-143.21;46.47;71503.09;5109007;28;20211;-79
2023/09/26 08:56:36;;;;;;;16.83;4.53;;;;;;;-143.21;45.76;71499.13;5107213;28;20219;-80
2023/09/26 08:59:06;;;;;;;19.23;4.20;;;;;;;-143.21;45.61;71493.19;5106673;28;20234;-81
2023/09/26 09:01:34;;;;;;;13.30;4.80;;;;;;;-143.21;45.18;71461.47;5108251;28;20204;-80
2023/09/26 09:04:01;;;;;;;9.85;4.80;;;;;;;-143.21;44.75;71427.75;5107814;28;20303;-78
2023/09/26 09:06:31;;;;;;;17.65;4.90;;;;;;;-143.21;44.40;71394.06;5108464;28;20594;-80
2023/09/26 09:09:10;;;;;;;19.70;4.85;;;;;;;-143.21;43.27;71346.47;5106875;28;20674;-80
2023/09/26 09:11:37;;;;;;;13.95;4.43;;;;;;;-143.21;42.83;71304.84;5107548;28;20239;-80
2023/09/26 09:14:04;;;;;;;11.65;4.80;;;;;;;-143.21;42.19;71265.19;5109429;28;20296;-80
2023/09/26 09:16:30;;;;;;;16.85;5.75;;;;;;;-143.21;41.37;71253.28;5110817;28;20200;-78
2023/09/26 09:18:58;;;;;;;14.18;4.57;;;;;;;-143.21;41.68;71229.50;5108946;28;20224;-78
2023/09/26 09:21:29;;;;;;;14.02;4.85;;;;;;;-143.21;40.83;71201.75;5106944;28;20208;-79
2023/09/26 09:23:58;;;;;;;14.75;5.05;;;;;;;-143.21;40.60;71183.91;5108788;28;20192;-79
2023/09/26 09:26:30;;;;;;;12.60;4.10;;;;;;;-143.21;40.79;71187.88;5101859;28;20215;-80
2023/09/26 09:29:16;;;;;;;20.73;5.35;;;;;;;-143.21;40.41;71174.00;5107865;28;20252;-81
2023/09/26 09:31:44;;;;;;;17.30;5.45;;;;;;;-143.21;39.96;71134.34;5109409;28;20421;-79
2023/09/26 09:34:17;;;;;;;11.73;4.57;;;;;;;-143.21;39.51;71112.53;5107503;28;20632;-80
2023/09/26 09:36:46;;;;;;;12.65;4.57;;;;;;;-143.21;39.26;71066.94;5108751;28;20215;-79
2023/09/26 09:39:13;;;;;;;16.02;5.00;;;;;;;-143.21;39.16;71015.41;5107535;28;20311;-80
2023/09/26 09:41:41;;;;;;;11.82;4.13;;;;;;;-143.21;38.21;70975.75;5111047;28;20257;-79
2023/09/26 09:44:08;;;;;;;15.07;4.47;;;;;;;-143.21;37.21;70949.97;5107927;28;20610;-81
2023/09/26 09:46:39;;;;;;;21.35;5.00;;;;;;;-143.21;37.21;70948.00;5107896;28;20207;-80
2023/09/26 09:49:11;;;;;;;12.85;4.70;;;;;;;-143.21;37.91;70940.06;5107148;28;20203;-79
2023/09/26 09:51:42;;;;;;;13.68;4.72;;;;;;;-143.21;37.75;70910.34;5108533;28;20319;-79
2023/09/26 09:54:13;;;;;;;9.68;4.55;;;;;;;-143.21;36.76;70874.66;5109482;28;20296;-79
2023/09/26 09:56:46;;;;;;;11.25;3.80;;;;;;;-143.21;36.81;70856.81;5107522;28;20261;-79
2023/09/26 09:59:16;;;;;;;13.27;4.97;;;;;;;-143.21;36.93;70876.63;5106822;28;20611;-79
2023/09/26 10:01:45;;;;;;;23.67;5.03;;;;;;;-143.21;37.25;70894.47;5107292;28;20212;-79
2023/09/26 10:04:16;;;;;;;19.77;4.60;;;;;;;-143.21;37.52;70910.34;5107725;28;20205;-79
2023/09/26 10:06:46;;;;;;;15.90;4.50;;;;;;;-143.21;37.77;70914.31;5109993;28;20267;-79
2023/09/26 10:09:14;;;;;;;17.90;4.60;;;;;;;-143.21;38.44;70967.81;5107098;28;20448;-80
2023/09/26 10:11:45;;;;;;;23.65;4.78;;;;;;;-143.21;38.84;70969.81;5107588;28;20587;-80
2023/09/26 10:14:13;;;;;;;21.92;5.38;;;;;;;-143.21;38.52;70944.03;5104630;28;20230;-79
2023/09/26 10:16:42;;;;;;;20.02;5.15;;;;;;;-143.21;38.76;70924.22;5105209;28;20206;-78
2023/09/26 10:19:13;;;;;;;25.13;5.82;;;;;;;-143.21;38.21;70906.38;5108550;28;20224;-79
2023/09/26 10:21:42;;;;;;;15.55;5.32;;;;;;;-143.21;38.15;70862.75;5109234;28;20256;-79
2023/09/26 10:24:29;;;;;;;18.90;5.72;;;;;;;-143.21;37.21;70831.03;5106481;28;20698;-80
2023/09/26 10:27:00;;;;;;;19.45;5.10;;;;;;;-143.21;37.16;70831.03;5106868;28;20208;-80
2023/09/26 10:29:32;;;;;;;22.70;6.15;;;;;;;-143.21;37.38;70827.06;5107959;28;20215;-79
2023/09/26 10:32:04;;;;;;;37.42;6.15;;;;;;;-143.21;37.34;70809.25;5107952;28;20200;-79
2023/09/26 10:34:36;;;;;;;25.70;5.32;;;;;;;-143.21;36.91;70773.56;5106359;28;20243;-79
2023/09/26 10:37:07;;;;;;;13.32;5.05;;;;;;;-143.21;36.90;70783.47;5106495;28;20239;-79
2023/09/26 10:39:39;;;;;;;24.20;5.43;;;;;;;-143.21;36.84;70777.53;5105858;28;20603;-81
2023/09/26 10:42:22;;;;;;;65.47;6.63;;;;;;;-143.21;36.62;70759.69;5107558;28;20195;-81
2023/09/26 10:44:52;;;;;;;15.38;5.25;;;;;;;-143.21;36.00;70727.97;5110330;28;20204;-80
2023/09/26 10:47:22;;;;;;;17.73;4.90;;;;;;;-143.21;35.61;70714.09;5106074;28;20200;-78
2023/09/26 10:49:49;;;;;;;17.77;5.03;;;;;;;-143.21;35.60;70686.34;5106553;28;20200;-79
2023/09/26 10:52:16;;;;;;;20.30;5.30;;;;;;;-143.21;35.07;70658.59;5104415;28;20604;-79
2023/09/26 10:54:46;;;;;;;19.52;4.65;;;;;;;-143.21;35.19;70682.38;5108103;28;20204;-83
2023/09/26 10:57:20;;;;;;;11.43;4.70;;;;;;;-143.21;35.34;70674.44;5108900;28;20211;-83
2023/09/26 10:59:49;;;;;;;16.92;5.40;;;;;;;-143.21;35.16;70636.78;5107628;28;20231;-81
2023/09/26 11:02:16;;;;;;;12.30;4.80;;;;;;;-143.21;34.80;70644.72;5105995;28;20857;-81
2023/09/26 11:04:44;;;;;;;19.98;5.53;;;;;;;-143.21;34.85;70620.94;5107034;27;20204;-82
2023/09/26 11:07:18;;;;;;;15.88;4.78;;;;;;;-143.21;35.13;70648.69;5109499;28;20208;-82
2023/09/26 11:09:45;;;;;;;16.38;4.75;;;;;;;-143.21;35.60;70698.22;5109025;28;20269;-83
2023/09/26 11:12:13;;;;;;;15.27;4.80;;;;;;;-143.21;36.00;70702.19;5105864;28;20662;-81
2023/09/26 11:14:41;;;;;;;16.02;4.85;;;;;;;-143.21;36.04;70682.38;5105823;28;20585;-82